Time;durP1;ratioP1;P1;durP2;ratioP2;P2;SDS_P1;SDS_P2;PMS_P1;PMS_P2;Temp;Humidity;BMP_temperature;BMP_pressure;BME280_temperature;BME280_humidity;BME280_pressure;Samples;Min_cycle;Max_cycle;Signal;HPM_P1;HPM_P2
2021/07/23 00:02:04;;;;;;;14.10;12.80;;;17.80;99.90;;;18.79;77.12;98081.97;5222994;28;20201;-63
2021/07/23 00:04:37;;;;;;;14.05;12.65;;;17.80;99.90;;;18.79;76.66;98071.59;5228109;28;20236;-63
2021/07/23 00:07:11;;;;;;;14.07;12.70;;;17.80;99.90;;;18.77;77.06;98077.56;5223045;28;20711;-63
2021/07/23 00:09:44;;;;;;;13.45;12.05;;;17.80;99.90;;;18.65;76.92;98084.13;5211443;28;20285;-63
2021/07/23 00:12:17;;;;;;;14.02;12.63;;;17.70;99.90;;;18.59;77.08;98077.91;5208773;28;20273;-63
2021/07/23 00:14:51;;;;;;;13.73;12.43;;;17.60;99.90;;;18.54;77.17;98072.59;5211180;28;20198;-63
2021/07/23 00:17:24;;;;;;;13.90;12.50;;;17.60;99.90;;;18.44;77.77;98067.97;5222417;28;20251;-63
2021/07/23 00:19:57;;;;;;;14.20;12.82;;;17.50;99.90;;;18.44;78.86;98074.03;5226990;28;20341;-63
2021/07/23 00:22:30;;;;;;;14.35;12.85;;;17.50;99.90;;;18.52;78.04;98074.25;5227035;28;20638;-63
2021/07/23 00:25:04;;;;;;;14.98;13.57;;;17.60;99.90;;;18.53;77.46;98070.81;5207853;28;20204;-63
2021/07/23 00:27:37;;;;;;;13.88;12.68;;;17.50;99.90;;;18.38;77.73;98068.66;5223666;28;20704;-63
2021/07/23 00:30:13;;;;;;;13.55;12.30;;;17.40;99.90;;;18.29;77.33;98070.13;5226921;28;20190;-63
2021/07/23 00:32:46;;;;;;;13.98;12.65;;;17.30;99.90;;;18.16;79.10;98061.97;5227982;28;20236;-63
2021/07/23 00:35:20;;;;;;;14.43;13.02;;;17.20;99.90;;;18.13;78.85;98066.19;5226729;28;20208;-63
2021/07/23 00:37:53;;;;;;;14.20;12.90;;;17.10;99.90;;;18.04;79.67;98059.00;5206156;28;20232;-63
2021/07/23 00:40:26;;;;;;;13.73;12.43;;;17.20;99.90;;;18.15;78.81;98061.94;5222898;28;20280;-63
2021/07/23 00:42:59;;;;;;;14.85;13.45;;;17.20;99.90;;;18.18;79.67;98054.25;5207410;28;20204;-63
2021/07/23 00:45:34;;;;;;;14.50;13.20;;;17.30;99.90;;;18.21;79.51;98056.94;5206867;28;20220;-63
2021/07/23 00:48:07;;;;;;;14.27;12.98;;;17.30;99.90;;;18.18;78.96;98054.25;5211768;28;20240;-63
2021/07/23 00:50:40;;;;;;;13.55;12.27;;;17.30;99.90;;;18.18;78.60;98059.44;5214528;28;20292;-63
2021/07/23 00:53:14;;;;;;;14.07;12.77;;;17.10;99.90;;;18.17;78.74;98062.84;5225426;28;20231;-63
2021/07/23 00:55:54;;;;;;;14.43;12.95;;;17.20;99.90;;;18.15;79.21;98067.09;5206895;28;20207;-63
2021/07/23 00:58:29;;;;;;;14.88;13.48;;;17.20;99.90;;;18.20;79.65;98063.84;5218272;28;20643;-63
2021/07/23 01:01:04;;;;;;;14.48;12.98;;;17.20;99.90;;;18.19;79.59;98059.47;5230717;28;20201;-63
2021/07/23 01:03:39;;;;;;;13.90;12.55;;;17.20;99.90;;;18.23;79.68;98063.06;5214482;28;20208;-63
2021/07/23 01:06:12;;;;;;;13.38;12.07;;;17.20;99.90;;;18.20;80.08;98061.25;5218313;28;20219;-62
2021/07/23 01:08:45;;;;;;;14.23;12.82;;;17.30;99.90;;;18.22;78.60;98053.50;5210829;28;20194;-63
2021/07/23 01:11:18;;;;;;;13.50;12.20;;;17.20;99.90;;;18.23;79.04;98050.97;5214946;28;20285;-62
2021/07/23 01:13:51;;;;;;;14.48;13.13;;;17.20;99.90;;;18.18;78.76;98049.09;5211370;28;20569;-63
2021/07/23 01:16:25;;;;;;;13.25;11.98;;;17.20;99.90;;;18.12;79.05;98059.25;5220638;28;20224;-63
2021/07/23 01:18:58;;;;;;;14.73;13.35;;;17.10;99.90;;;18.16;79.36;98045.56;5217539;28;20205;-62
2021/07/23 01:21:32;;;;;;;14.27;12.82;;;17.10;99.90;;;18.12;78.83;98044.59;5209489;28;20200;-62
2021/07/23 01:24:07;;;;;;;14.60;13.20;;;17.10;99.90;;;18.08;79.07;98044.47;5211652;28;20248;-62
2021/07/23 01:26:41;;;;;;;13.52;12.35;;;17.10;99.90;;;18.05;79.72;98044.38;5208795;28;20608;-62
2021/07/23 01:29:14;;;;;;;13.00;11.90;;;17.00;99.90;;;18.00;79.34;98042.53;5222926;28;20203;-62
2021/07/23 01:31:47;;;;;;;13.30;12.10;;;17.00;99.90;;;17.94;79.77;98037.16;5227535;28;20197;-62
2021/07/23 01:34:20;;;;;;;13.70;12.50;;;16.90;99.90;;;17.92;79.50;98036.22;5208990;28;20620;-62
2021/07/23 01:36:53;;;;;;;14.50;13.00;;;16.90;99.90;;;17.85;80.81;98036.84;5209518;28;20214;-61
2021/07/23 01:39:28;;;;;;;14.35;12.95;;;16.90;99.90;;;17.82;80.98;98034.19;5209628;28;20200;-62
2021/07/23 01:42:01;;;;;;;14.48;13.07;;;16.90;99.90;;;17.84;81.40;98037.69;5208701;28;20212;-62
2021/07/23 01:44:34;;;;;;;14.57;13.07;;;16.90;99.90;;;17.87;81.40;98040.38;5210691;28;20194;-62
2021/07/23 01:47:07;;;;;;;13.75;12.55;;;16.90;99.90;;;17.92;80.94;98046.59;5208828;28;20228;-61
2021/07/23 01:49:40;;;;;;;14.77;13.25;;;16.90;99.90;;;17.85;79.49;98042.03;5208285;28;20201;-62
2021/07/23 01:52:13;;;;;;;13.75;12.25;;;16.80;99.90;;;17.84;79.97;98040.28;5224186;28;20197;-61
2021/07/23 01:54:48;;;;;;;13.75;12.55;;;16.80;99.90;;;17.77;79.98;98038.31;5213042;28;20627;-59
2021/07/23 01:57:21;;;;;;;14.13;12.82;;;16.70;99.90;;;17.73;80.37;98039.91;5212666;28;20301;-60
2021/07/23 01:59:54;;;;;;;14.15;12.75;;;16.70;99.90;;;17.76;80.60;98041.72;5208513;28;20293;-62
2021/07/23 02:02:27;;;;;;;14.27;12.77;;;16.70;99.90;;;17.75;80.66;98040.84;5227304;28;20208;-61
2021/07/23 02:05:01;;;;;;;14.02;12.73;;;16.70;99.90;;;17.67;81.37;98029.38;5227276;28;20320;-60
2021/07/23 02:07:34;;;;;;;14.20;12.88;;;16.70;99.90;;;17.59;80.57;98035.13;5226140;28;20233;-62
2021/07/23 02:10:09;;;;;;;14.75;13.35;;;16.60;99.90;;;17.46;81.40;98023.53;5223641;28;20567;-60
2021/07/23 02:12:42;;;;;;;14.75;13.30;;;16.50;99.90;;;17.35;81.24;98030.94;5228613;28;20287;-61
2021/07/23 02:15:15;;;;;;;14.82;13.40;;;16.40;99.90;;;17.29;82.37;98028.16;5214079;28;20214;-61
2021/07/23 02:17:48;;;;;;;15.85;14.32;;;16.30;99.90;;;17.27;82.42;98022.03;5213283;28;20296;-58
2021/07/23 02:20:21;;;;;;;14.75;13.45;;;16.30;99.90;;;17.29;82.77;98020.38;5224265;28;20208;-59
2021/07/23 02:22:54;;;;;;;14.95;13.55;;;16.40;99.90;;;17.30;82.56;98027.31;5209901;28;20208;-60
2021/07/23 02:25:30;;;;;;;14.27;12.93;;;16.40;99.90;;;17.34;81.99;98024.00;5212548;28;20196;-59
2021/07/23 02:28:03;;;;;;;15.27;13.82;;;16.40;99.90;;;17.24;81.96;98022.81;5217313;28;20216;-61
2021/07/23 02:30:38;;;;;;;14.52;13.13;;;16.30;99.90;;;17.28;81.93;98027.28;5210984;28;20201;-60
2021/07/23 02:33:11;;;;;;;15.77;14.10;;;16.40;99.90;;;17.32;81.63;98028.25;5225520;28;20285;-62
2021/07/23 02:35:44;;;;;;;14.25;12.85;;;16.40;99.90;;;17.32;82.26;98028.25;5232683;23;20590;-62
2021/07/23 02:38:17;;;;;;;14.70;13.23;;;16.40;99.90;;;17.31;81.92;98021.28;5227519;28;20645;-62
2021/07/23 02:40:54;;;;;;;14.68;13.38;;;16.30;99.90;;;17.26;82.43;98022.88;5228502;28;20664;-62
2021/07/23 02:43:27;;;;;;;14.07;12.75;;;16.30;99.90;;;17.29;81.74;98028.16;5227908;28;20196;-63
2021/07/23 02:46:00;;;;;;;14.55;13.15;;;16.30;99.90;;;17.31;82.05;98021.28;5223811;28;20220;-62
2021/07/23 02:48:33;;;;;;;14.15;12.85;;;16.30;99.90;;;17.26;82.24;98025.47;5207385;28;20554;-63
2021/07/23 02:51:07;;;;;;;15.02;13.63;;;16.30;99.90;;;17.21;81.66;98017.53;5209722;28;20662;-62
2021/07/23 02:53:40;;;;;;;14.15;12.85;;;16.30;99.90;;;17.13;82.15;98018.13;5207102;28;20685;-63
2021/07/23 02:56:14;;;;;;;14.65;13.13;;;16.20;99.90;;;17.07;81.42;98017.06;5208813;28;20216;-62
2021/07/23 02:58:47;;;;;;;14.55;13.18;;;16.20;99.90;;;17.05;81.66;98015.25;5217937;28;20287;-63
2021/07/23 03:01:20;;;;;;;13.70;12.38;;;16.10;99.90;;;17.05;82.02;98016.16;5221767;28;20200;-62
2021/07/23 03:03:53;;;;;;;15.07;13.68;;;16.10;99.90;;;17.13;82.14;98020.69;5219518;28;20197;-62
2021/07/23 03:06:26;;;;;;;14.10;12.65;;;16.20;99.90;;;17.10;81.57;98017.16;5225212;28;20193;-62
2021/07/23 03:08:59;;;;;;;15.80;14.30;;;16.20;99.90;;;17.07;81.96;98006.75;5227357;28;20204;-62
2021/07/23 03:11:34;;;;;;;14.70;13.23;;;16.10;99.90;;;17.08;81.85;98008.53;5225712;28;20197;-62
2021/07/23 03:14:07;;;;;;;13.77;12.55;;;16.10;99.90;;;16.96;81.94;98000.34;5221881;28;20213;-62
2021/07/23 03:16:40;;;;;;;14.95;13.45;;;16.00;99.90;;;16.93;81.84;98002.81;5217398;28;20198;-63
2021/07/23 03:19:13;;;;;;;14.98;13.15;;;16.00;99.90;;;16.95;81.82;98005.47;5226610;28;20197;-62
2021/07/23 03:21:48;;;;;;;14.80;13.50;;;16.00;99.90;;;16.95;81.49;98006.34;5213328;28;20328;-62
2021/07/23 03:24:21;;;;;;;15.10;13.18;;;15.90;99.90;;;16.90;82.83;98002.72;5206667;28;20224;-62
2021/07/23 03:26:56;;;;;;;14.15;12.93;;;16.00;99.90;;;16.93;82.93;98002.81;5207807;28;20194;-63
2021/07/23 03:29:28;;;;;;;14.57;13.27;;;16.10;99.90;;;16.85;82.36;98001.66;5214392;28;20593;-63
2021/07/23 03:32:01;;;;;;;15.57;13.98;;;15.90;99.90;;;16.84;82.08;98002.50;5215340;28;20570;-63
2021/07/23 03:34:34;;;;;;;15.00;13.48;;;15.90;99.90;;;16.61;82.80;97993.91;5206414;28;20223;-62
2021/07/23 03:37:08;;;;;;;14.98;13.43;;;15.70;99.90;;;16.59;82.61;97992.97;5219976;28;20198;-63
2021/07/23 03:39:41;;;;;;;14.27;13.02;;;15.60;99.90;;;16.64;82.79;98004.34;5206526;28;20256;-61
2021/07/23 03:42:15;;;;;;;13.88;12.55;;;15.70;99.90;;;16.57;83.08;97990.34;5207303;28;20248;-62
2021/07/23 03:44:48;;;;;;;15.80;14.32;;;15.70;99.90;;;16.49;84.88;97996.94;5216619;28;20231;-62
2021/07/23 03:47:21;;;;;;;13.90;12.63;;;15.70;99.90;;;16.52;84.22;98002.22;5224558;28;20223;-62
2021/07/23 03:49:54;;;;;;;14.70;13.13;;;15.60;99.90;;;16.50;83.82;97993.53;5225201;28;20676;-60
2021/07/23 03:52:27;;;;;;;14.50;13.20;;;15.60;99.90;;;16.54;84.18;97995.41;5225701;28;20200;-62
2021/07/23 03:55:00;;;;;;;14.05;12.75;;;15.70;99.90;;;16.60;83.63;97992.16;5225914;28;20217;-60
2021/07/23 03:57:34;;;;;;;15.30;13.73;;;15.70;99.90;;;16.59;82.66;97993.84;5225135;28;20193;-61
2021/07/23 04:00:10;;;;;;;14.98;13.57;;;15.60;99.90;;;16.60;82.91;97994.75;5206842;28;20202;-62
2021/07/23 04:02:43;;;;;;;14.93;13.63;;;15.70;99.90;;;16.53;83.45;97996.22;5221857;28;20201;-62
2021/07/23 04:05:16;;;;;;;14.05;12.73;;;15.60;99.90;;;16.59;82.63;98001.59;5209208;28;20231;-62
2021/07/23 04:07:49;;;;;;;14.88;13.57;;;15.60;99.90;;;16.65;82.09;98004.41;5207083;28;20201;-62
2021/07/23 04:10:22;;;;;;;14.18;12.98;;;15.70;99.90;;;16.71;82.41;97992.53;5206213;28;20201;-62
2021/07/23 04:12:57;;;;;;;14.38;12.98;;;15.70;99.90;;;16.76;82.40;97998.75;5207901;28;20201;-60
2021/07/23 04:15:30;;;;;;;15.05;13.68;;;15.80;99.90;;;16.77;82.61;97997.94;5222098;28;20218;-62
2021/07/23 04:18:03;;;;;;;14.85;13.32;;;15.80;99.90;;;16.78;82.58;97995.41;5224471;28;20189;-62
2021/07/23 04:20:36;;;;;;;14.10;12.70;;;15.90;99.90;;;16.80;83.00;98000.66;5218269;28;20206;-63
2021/07/23 04:23:09;;;;;;;15.98;14.48;;;15.90;99.90;;;16.85;82.38;98001.66;5214963;28;20197;-62
2021/07/23 04:25:42;;;;;;;15.50;13.95;;;15.90;99.90;;;16.84;81.96;98002.50;5209492;28;20222;-62
2021/07/23 04:28:17;;;;;;;15.23;13.73;;;15.90;99.90;;;16.82;82.93;98004.16;5217185;28;20196;-62
2021/07/23 04:30:50;;;;;;;14.80;13.40;;;15.90;99.90;;;16.84;82.19;98005.09;5204637;28;20213;-63
2021/07/23 04:33:23;;;;;;;15.02;13.52;;;15.90;99.90;;;16.87;82.22;98000.91;5205623;28;20206;-60
2021/07/23 04:36:16;;;;;;;15.23;13.82;;;15.90;99.90;;;16.80;82.92;98003.22;5217594;28;20649;-61
2021/07/23 04:38:49;;;;;;;15.52;13.95;;;15.90;99.90;;;16.74;83.17;98010.69;5206735;28;20202;-63
2021/07/23 04:41:22;;;;;;;15.68;14.25;;;15.80;99.90;;;16.82;81.75;98011.88;5224230;28;20615;-63
2021/07/23 04:43:57;;;;;;;15.48;14.07;;;15.80;99.90;;;16.88;81.35;98013.00;5218355;28;20200;-63
2021/07/23 04:46:30;;;;;;;14.80;13.35;;;15.90;99.90;;;16.91;81.37;98019.06;5216051;28;20227;-60
2021/07/23 04:49:03;;;;;;;15.30;13.70;;;15.90;99.90;;;16.89;82.50;98017.31;5210333;28;20200;-62
2021/07/23 04:51:36;;;;;;;14.70;13.23;;;16.00;99.90;;;16.92;82.52;98018.28;5224228;28;20292;-64
2021/07/23 04:54:09;;;;;;;15.00;13.60;;;16.00;99.90;;;17.05;80.77;98026.50;5210056;28;20230;-63
2021/07/23 04:56:42;;;;;;;14.95;13.55;;;16.00;99.90;;;17.08;80.66;98024.00;5214107;28;20606;-64
2021/07/23 04:59:17;;;;;;;14.63;13.05;;;16.10;99.90;;;17.10;81.49;98024.91;5212007;28;20288;-64
2021/07/23 05:01:50;;;;;;;14.80;13.32;;;16.10;99.90;;;17.20;80.48;98030.44;5209033;28;20201;-66
2021/07/23 05:04:23;;;;;;;14.68;13.20;;;16.10;99.90;;;17.23;81.14;98030.53;5216416;28;20225;-65
2021/07/23 05:06:56;;;;;;;14.48;13.10;;;16.30;99.90;;;17.40;80.06;98018.13;5210733;28;20217;-63
2021/07/23 05:09:29;;;;;;;14.57;13.07;;;16.40;99.90;;;17.53;78.90;98031.50;5220281;28;20650;-63
2021/07/23 05:12:02;;;;;;;14.00;12.75;;;16.40;99.90;;;17.65;78.80;98025.84;5217745;28;20304;-64
2021/07/23 05:14:37;;;;;;;14.15;12.75;;;16.50;99.90;;;17.85;78.06;98029.09;5225388;28;20295;-64
2021/07/23 05:17:10;;;;;;;15.48;14.00;;;16.70;99.90;;;17.90;78.36;98030.13;5227131;28;20284;-64
2021/07/23 05:19:43;;;;;;;15.00;13.52;;;16.80;99.90;;;18.20;76.13;98021.56;5216268;28;20198;-64
2021/07/23 05:22:16;;;;;;;13.45;12.20;;;17.00;99.90;;;18.39;75.08;98023.81;5209841;28;20197;-64
2021/07/23 05:24:50;;;;;;;13.82;12.48;;;17.10;99.90;;;18.50;75.58;98029.31;5224494;28;20312;-65
2021/07/23 05:27:23;;;;;;;13.55;12.25;;;17.30;99.90;;;18.90;74.08;98023.56;5220523;28;20217;-64
2021/07/23 05:29:59;;;;;;;13.70;12.45;;;17.70;99.90;;;19.42;72.58;98024.03;5205616;28;20198;-64
2021/07/23 05:32:32;;;;;;;13.85;12.60;;;18.10;99.90;;;19.98;70.84;98026.25;5208743;28;20214;-64
2021/07/23 05:35:06;;;;;;;13.35;12.15;;;18.70;99.90;;;20.49;68.21;98020.44;5219085;28;20225;-63
2021/07/23 05:37:39;;;;;;;14.88;13.50;;;19.00;99.90;;;20.87;66.77;98020.34;5209156;28;20200;-64
2021/07/23 05:40:16;;;;;;;14.60;13.15;;;19.30;99.90;;;21.14;65.01;98018.22;5224964;28;20197;-63
2021/07/23 05:42:49;;;;;;;13.57;12.38;;;19.50;99.90;;;21.39;64.04;98023.91;5225665;28;20659;-63
2021/07/23 05:45:23;;;;;;;14.07;12.77;;;19.70;99.90;;;21.70;63.52;98021.81;5212386;28;20717;-63
2021/07/23 05:47:56;;;;;;;14.63;13.05;;;19.90;99.90;;;21.89;63.05;98020.34;5219641;28;20192;-64
2021/07/23 05:50:29;;;;;;;13.80;12.40;;;20.10;99.90;;;22.04;61.70;98017.97;5221004;28;20207;-64
2021/07/23 05:53:02;;;;;;;14.45;13.05;;;20.20;99.90;;;22.33;60.90;98022.75;5229184;28;20299;-63
2021/07/23 05:55:35;;;;;;;14.80;13.50;;;20.30;99.90;;;22.52;60.80;98026.44;5223179;28;20220;-64
2021/07/23 05:58:08;;;;;;;14.75;13.35;;;20.60;99.90;;;22.61;60.41;98016.16;5226815;28;20202;-65
2021/07/23 06:00:44;;;;;;;15.00;13.52;;;20.60;99.90;;;22.79;59.64;98012.88;5235331;28;20201;-65
2021/07/23 06:03:17;;;;;;;13.90;12.45;;;20.70;99.90;;;23.10;59.19;98019.31;5233735;28;20664;-65
2021/07/23 06:05:50;;;;;;;14.60;13.20;;;20.80;99.90;;;23.42;58.23;98023.97;5234002;28;20646;-65
2021/07/23 06:08:24;;;;;;;13.38;12.18;;;21.00;99.90;;;23.86;56.99;98023.44;5217589;28;20197;-65
2021/07/23 06:10:57;;;;;;;14.23;12.95;;;21.40;99.90;;;24.19;55.69;98023.66;5230146;28;20213;-64
2021/07/23 06:13:30;;;;;;;14.35;13.15;;;21.60;99.90;;;24.08;55.67;98020.13;5213909;28;20625;-64
2021/07/23 06:16:06;;;;;;;13.65;12.35;;;21.70;99.90;;;24.33;55.29;98020.28;5206390;28;20214;-64
2021/07/23 06:18:39;;;;;;;13.20;11.88;;;21.80;99.90;;;24.74;54.26;98012.63;5206302;28;20207;-64
2021/07/23 06:21:13;;;;;;;13.63;12.43;;;22.10;99.90;;;25.10;53.01;98010.97;5206616;28;20202;-64
2021/07/23 06:23:46;;;;;;;13.70;12.30;;;22.40;99.90;;;25.42;52.54;98008.41;5219514;28;20207;-63
2021/07/23 06:26:19;;;;;;;13.20;12.10;;;22.50;99.90;;;25.51;52.25;98013.66;5206363;28;20365;-64
2021/07/23 06:28:52;;;;;;;14.30;12.95;;;22.70;99.90;;;25.57;51.92;98003.16;5209367;28;20189;-63
2021/07/23 06:31:26;;;;;;;13.60;12.40;;;22.80;99.90;;;26.03;51.13;98005.75;5213537;28;20197;-64
2021/07/23 06:34:00;;;;;;;13.68;12.38;;;23.10;99.90;;;26.24;50.84;98002.22;5216479;28;20254;-64
2021/07/23 06:36:33;;;;;;;13.48;12.20;;;23.30;99.90;;;26.73;49.70;98001.19;5226895;28;20197;-63
2021/07/23 06:39:06;;;;;;;13.88;12.57;;;23.70;99.90;;;27.05;48.23;97990.50;5219078;28;20683;-65
2021/07/23 06:41:39;;;;;;;14.32;13.02;;;24.00;99.90;;;27.26;47.50;97991.25;5218765;28;20538;-65
2021/07/23 06:44:13;;;;;;;14.30;13.00;;;24.20;99.90;;;27.44;47.35;97992.88;5219889;28;20212;-65
2021/07/23 06:46:47;;;;;;;13.73;12.43;;;24.40;99.90;;;27.83;46.51;98000.44;5219456;28;20251;-66
2021/07/23 06:49:20;;;;;;;14.00;12.70;;;24.50;99.70;;;28.12;45.69;97996.63;5223982;28;20204;-65
2021/07/23 06:51:53;;;;;;;13.48;12.27;;;24.90;99.10;;;27.91;46.81;97996.88;5220763;28;20192;-66
2021/07/23 06:54:27;;;;;;;14.15;12.85;;;24.90;99.20;;;28.29;45.66;97994.69;5217956;28;20239;-64
2021/07/23 06:57:03;;;;;;;13.50;12.10;;;25.10;98.70;;;28.25;46.26;97992.97;5218721;28;20196;-64
2021/07/23 06:59:37;;;;;;;14.32;12.95;;;25.20;99.00;;;28.64;44.87;97992.53;5210913;28;20585;-64
2021/07/23 07:02:11;;;;;;;14.38;13.07;;;25.50;98.00;;;29.02;44.00;97986.75;5219736;28;20200;-66
2021/07/23 07:04:44;;;;;;;14.20;12.90;;;25.60;97.60;;;29.22;43.72;97993.50;5217858;28;20234;-65
2021/07/23 07:07:18;;;;;;;14.98;13.57;;;25.90;97.20;;;29.09;42.94;97988.44;5220221;28;20393;-66
2021/07/23 07:09:51;;;;;;;14.27;12.88;;;25.80;96.90;;;29.21;43.36;97991.75;5220333;28;20204;-66
2021/07/23 07:12:24;;;;;;;14.75;13.35;;;26.00;97.10;;;29.46;42.78;97995.75;5222174;28;20205;-65
2021/07/23 07:14:57;;;;;;;14.35;12.57;;;26.20;96.90;;;29.50;42.76;97989.53;5218998;28;20589;-66
2021/07/23 07:17:32;;;;;;;14.45;13.13;;;26.40;96.80;;;29.78;41.86;97989.97;5218918;28;20574;-66
2021/07/23 07:20:06;;;;;;;14.48;13.07;;;26.60;96.20;;;29.60;42.81;97993.75;5223486;28;20196;-66
2021/07/23 07:22:39;;;;;;;14.32;13.02;;;26.60;95.90;;;29.59;43.00;97985.91;5217101;28;20205;-64
2021/07/23 07:25:14;;;;;;;15.43;14.00;;;26.70;96.10;;;29.88;42.03;97990.69;5216159;28;20715;-65
2021/07/23 07:27:47;;;;;;;14.43;13.02;;;26.90;95.50;;;29.90;42.04;97988.00;5214343;28;20228;-66
2021/07/23 07:30:21;;;;;;;14.25;12.95;;;27.00;95.30;;;30.06;41.25;97989.47;5218656;28;20677;-65
2021/07/23 07:32:56;;;;;;;15.05;13.65;;;27.20;94.90;;;30.44;40.83;97986.09;5217718;28;20722;-66
2021/07/23 07:35:29;;;;;;;14.55;13.23;;;27.40;94.70;;;30.69;39.92;97988.22;5219553;28;20236;-65
2021/07/23 07:38:02;;;;;;;14.30;12.95;;;27.50;94.20;;;30.77;39.83;97978.38;5215838;28;20192;-65
2021/07/23 07:40:35;;;;;;;14.02;12.77;;;27.40;94.10;;;30.95;39.12;97972.69;5216208;28;20207;-65
2021/07/23 07:43:09;;;;;;;14.45;13.15;;;27.40;93.80;;;30.97;39.49;97980.59;5217400;28;20560;-65
2021/07/23 07:45:42;;;;;;;13.50;12.20;;;27.40;94.10;;;31.21;38.73;97979.16;5216012;28;20246;-66
2021/07/23 07:48:16;;;;;;;13.23;12.02;;;27.50;93.80;;;31.51;38.26;97982.00;5214184;28;20227;-65
2021/07/23 07:50:49;;;;;;;14.05;12.80;;;27.40;94.00;;;31.27;39.03;97983.41;5218231;28;20647;-66
2021/07/23 07:53:22;;;;;;;14.60;13.30;;;27.60;94.10;;;31.73;37.32;97982.28;5215543;28;20196;-65
2021/07/23 07:55:55;;;;;;;14.45;13.15;;;27.80;92.70;;;31.87;36.65;97972.22;5217187;28;20217;-65
2021/07/23 07:58:28;;;;;;;14.20;12.90;;;28.00;92.20;;;31.87;37.41;97978.38;5218948;28;20199;-66
2021/07/23 08:01:05;;;;;;;15.75;14.13;;;28.30;92.60;;;30.88;39.20;97976.41;5213072;28;20205;-65
2021/07/23 08:03:40;;;;;;;15.80;14.20;;;27.70;93.40;;;31.69;37.21;97976.22;5216482;28;20275;-65
2021/07/23 08:06:21;;;;;;;14.85;13.45;;;28.10;92.40;;;32.20;35.68;97967.84;5215692;28;20203;-65
2021/07/23 08:08:57;;;;;;;13.48;12.30;;;28.30;91.50;;;32.53;35.01;97973.09;5217266;28;20227;-65
2021/07/23 08:11:30;;;;;;;14.43;13.20;;;28.60;91.20;;;33.02;33.31;97974.25;5216582;28;20232;-63
2021/07/23 08:14:03;;;;;;;13.93;12.63;;;28.60;89.50;;;32.07;35.28;97971.72;5216173;28;20228;-62
2021/07/23 08:16:36;;;;;;;13.50;12.30;;;28.50;90.30;;;31.87;36.07;97969.59;5215706;28;20690;-63
2021/07/23 08:19:11;;;;;;;14.05;12.77;;;28.70;90.30;;;31.96;36.20;97969.34;5213240;28;20210;-62
2021/07/23 08:21:44;;;;;;;13.25;12.07;;;28.80;90.30;;;31.74;37.53;97965.53;5222395;28;20234;-63
2021/07/23 08:24:17;;;;;;;13.77;12.38;;;29.00;91.00;;;31.22;38.07;97949.19;5209133;28;20223;-63
2021/07/23 08:26:50;;;;;;;13.80;12.48;;;28.90;90.80;;;31.40;38.09;97948.75;5215859;28;20611;-63
2021/07/23 08:29:24;;;;;;;13.60;12.38;;;29.10;90.70;;;31.65;37.37;97950.78;5214930;28;20205;-64
2021/07/23 08:32:05;;;;;;;13.82;12.50;;;29.20;90.40;;;31.64;37.16;97947.25;5225450;28;20205;-62
2021/07/23 08:34:40;;;;;;;13.70;12.50;;;29.10;90.10;;;31.41;37.88;97947.00;5215996;28;20238;-63
2021/07/23 08:37:13;;;;;;;12.05;11.05;;;29.30;90.20;;;31.53;37.62;97937.88;5220787;28;20203;-63
2021/07/23 08:39:46;;;;;;;12.88;11.77;;;29.30;90.10;;;31.47;37.79;97948.59;5211702;28;20197;-61
2021/07/23 08:42:24;;;;;;;13.73;11.98;;;29.30;89.70;;;30.93;37.63;97940.19;5220320;28;20204;-63
2021/07/23 08:44:59;;;;;;;11.45;10.27;;;29.00;87.60;;;30.93;38.27;97937.56;5212815;28;20220;-63
2021/07/23 08:47:34;;;;;;;11.23;10.23;;;29.30;89.10;;;30.97;37.55;97944.50;5211192;28;20726;-65
2021/07/23 08:50:11;;;;;;;11.05;10.05;;;29.20;88.50;;;30.84;35.20;97936.88;5204108;28;20207;-65
2021/07/23 08:52:46;;;;;;;10.77;9.77;;;29.30;83.10;;;30.94;35.83;97936.66;5207638;28;20664;-65
2021/07/23 08:55:19;;;;;;;10.77;9.88;;;29.20;85.70;;;30.87;36.04;97935.03;5224384;28;20315;-65
2021/07/23 08:57:53;;;;;;;11.70;10.60;;;29.40;84.80;;;31.18;35.89;97934.31;5222479;28;20192;-66
2021/07/23 09:00:27;;;;;;;10.57;9.60;;;29.50;84.70;;;31.38;36.08;97926.78;5220536;28;20192;-65
2021/07/23 09:03:02;;;;;;;12.55;11.25;;;29.60;85.00;;;31.47;36.66;97933.63;5207088;28;20194;-65
2021/07/23 09:05:39;;;;;;;11.90;10.90;;;29.80;86.30;;;31.55;36.70;97938.72;5205061;28;20217;-65
2021/07/23 09:08:14;;;;;;;11.40;10.40;;;29.80;86.40;;;31.71;36.61;97932.13;5203378;28;20312;-66
2021/07/23 09:10:49;;;;;;;12.40;10.90;;;29.90;87.30;;;31.73;35.77;97935.56;5204215;28;20201;-65
2021/07/23 09:13:23;;;;;;;11.55;10.45;;;30.10;84.60;;;31.54;36.91;97927.28;5208157;28;20234;-65
2021/07/23 09:15:57;;;;;;;11.93;10.82;;;29.80;86.00;;;31.57;36.26;97927.19;5221468;28;20217;-62
2021/07/23 09:18:33;;;;;;;11.40;10.43;;;30.00;84.90;;;31.62;36.25;97933.22;5216867;28;20261;-62
2021/07/23 09:21:09;;;;;;;11.25;10.25;;;29.90;84.80;;;31.49;36.54;97926.53;5211160;28;20657;-64
2021/07/23 09:23:42;;;;;;;11.43;10.30;;;29.90;84.90;;;31.71;36.04;97916.25;5229496;28;20203;-64
2021/07/23 09:26:18;;;;;;;12.18;10.23;;;29.80;85.70;;;31.68;36.57;97920.75;5221091;28;20574;-64
2021/07/23 09:28:52;;;;;;;10.52;9.68;;;29.80;85.80;;;31.70;36.08;97914.50;5227718;28;20228;-64
2021/07/23 09:31:28;;;;;;;11.13;10.13;;;30.10;84.40;;;31.56;35.45;97911.38;5223270;28;20194;-64
2021/07/23 09:34:05;;;;;;;10.50;9.60;;;30.00;82.60;;;31.17;35.35;97917.59;5225996;28;20227;-65
2021/07/23 09:36:39;;;;;;;10.30;9.40;;;29.80;82.90;;;31.19;36.00;97910.53;5227754;28;20207;-64
2021/07/23 09:39:32;;;;;;;10.63;9.65;;;29.80;82.90;;;31.40;35.03;97911.78;5227159;28;20196;-64
2021/07/23 09:42:06;;;;;;;10.55;9.38;;;29.80;81.80;;;31.34;34.90;97901.34;5224166;28;20288;-64
2021/07/23 09:44:39;;;;;;;10.23;9.30;;;29.70;81.70;;;31.30;35.49;97898.78;5214896;28;20708;-64
2021/07/23 09:47:24;;;;;;;10.73;9.75;;;29.90;81.90;;;31.32;35.52;97902.28;5217329;28;20194;-63
2021/07/23 09:49:58;;;;;;;10.10;9.20;;;30.00;82.20;;;31.45;34.44;97898.44;5223230;28;20196;-62
2021/07/23 09:52:35;;;;;;;11.02;10.02;;;29.80;81.00;;;31.41;34.38;97897.66;5228537;28;20279;-62
2021/07/23 09:55:09;;;;;;;10.10;9.20;;;29.90;79.80;;;31.20;34.82;97892.88;5221297;28;20566;-62
2021/07/23 09:57:47;;;;;;;10.73;9.73;;;29.60;81.40;;;31.00;36.78;97893.38;5212825;28;20283;-62
2021/07/23 10:00:23;;;;;;;10.05;9.15;;;29.90;83.10;;;31.04;35.44;97896.81;5219794;28;20200;-62
2021/07/23 10:02:57;;;;;;;10.05;9.13;;;29.80;80.70;;;30.93;34.46;97895.31;5215845;28;20201;-62
2021/07/23 10:05:36;;;;;;;10.55;9.57;;;29.60;79.90;;;31.07;34.78;97894.09;5217940;28;20511;-62
2021/07/23 10:08:21;;;;;;;10.15;9.15;;;29.70;80.50;;;31.20;34.31;97892.88;5207844;28;20229;-62
2021/07/23 10:10:56;;;;;;;10.50;9.60;;;29.70;80.00;;;31.22;33.83;97891.09;5209432;28;20201;-62
2021/07/23 10:13:31;;;;;;;10.13;9.32;;;29.80;78.50;;;31.24;33.19;97886.59;5232378;28;20286;-62
2021/07/23 10:16:06;;;;;;;9.65;8.85;;;30.00;77.50;;;31.08;34.08;97888.78;5235900;28;20220;-62
2021/07/23 10:18:40;;;;;;;10.40;9.38;;;30.00;78.30;;;30.93;34.08;97884.75;5223629;28;20207;-62
2021/07/23 10:21:13;;;;;;;10.20;9.30;;;29.90;78.20;;;31.07;34.43;97872.97;5206445;28;20255;-62
2021/07/23 10:23:48;;;;;;;10.50;9.60;;;29.90;78.50;;;31.02;34.42;97873.09;5207130;28;20703;-62
2021/07/23 10:26:28;;;;;;;10.55;9.57;;;29.80;78.70;;;31.08;33.77;97867.66;5209027;28;20196;-62
2021/07/23 10:29:03;;;;;;;10.07;9.13;;;30.10;77.60;;;30.89;33.71;97867.22;5206198;28;20215;-62
2021/07/23 10:31:46;;;;;;;10.40;9.48;;;29.80;77.60;;;30.94;33.36;97872.41;5218317;28;20635;-62
2021/07/23 10:34:32;;;;;;;9.88;9.07;;;29.90;76.80;;;30.88;33.85;97854.94;5210067;28;20308;-62
2021/07/23 10:37:06;;;;;;;10.82;9.85;;;29.80;77.10;;;30.78;34.75;97847.25;5214282;28;20632;-62